sensor_id;sensor_type;location;lat;lon;timestamp;P1;durP1;ratioP1;P2;durP2;ratioP2
33654;SDS011;19997;51.274;22.506;2023-04-19T00:01:54;10.70;;;6.13;;
33654;SDS011;19997;51.274;22.506;2023-04-19T00:04:21;10.55;;;5.88;;
33654;SDS011;19997;51.274;22.506;2023-04-19T00:06:49;9.27;;;5.13;;
33654;SDS011;19997;51.274;22.506;2023-04-19T00:09:17;10.35;;;5.68;;
33654;SDS011;19997;51.274;22.506;2023-04-19T00:11:44;8.60;;;5.88;;
33654;SDS011;19997;51.274;22.506;2023-04-19T00:14:11;11.23;;;5.68;;
33654;SDS011;19997;51.274;22.506;2023-04-19T00:16:38;8.55;;;5.07;;
33654;SDS011;19997;51.274;22.506;2023-04-19T00:19:07;9.55;;;6.13;;
33654;SDS011;19997;51.274;22.506;2023-04-19T00:21:34;8.68;;;5.10;;
33654;SDS011;19997;51.274;22.506;2023-04-19T00:24:01;10.82;;;6.25;;
33654;SDS011;19997;51.274;22.506;2023-04-19T00:26:29;8.38;;;6.15;;
33654;SDS011;19997;51.274;22.506;2023-04-19T00:28:56;8.40;;;5.68;;
33654;SDS011;19997;51.274;22.506;2023-04-19T00:31:23;7.90;;;5.22;;
33654;SDS011;19997;51.274;22.506;2023-04-19T00:33:50;10.32;;;6.18;;
33654;SDS011;19997;51.274;22.506;2023-04-19T00:36:18;10.73;;;5.90;;
33654;SDS011;19997;51.274;22.506;2023-04-19T00:38:45;9.95;;;6.47;;
33654;SDS011;19997;51.274;22.506;2023-04-19T00:41:12;9.05;;;6.00;;
33654;SDS011;19997;51.274;22.506;2023-04-19T00:43:39;10.30;;;7.20;;
33654;SDS011;19997;51.274;22.506;2023-04-19T00:46:06;10.98;;;6.72;;
33654;SDS011;19997;51.274;22.506;2023-04-19T00:48:34;8.57;;;5.60;;
33654;SDS011;19997;51.274;22.506;2023-04-19T00:51:01;11.05;;;6.32;;
33654;SDS011;19997;51.274;22.506;2023-04-19T00:53:30;12.80;;;7.70;;
33654;SDS011;19997;51.274;22.506;2023-04-19T00:55:57;11.15;;;6.95;;
33654;SDS011;19997;51.274;22.506;2023-04-19T00:58:46;13.90;;;7.03;;
33654;SDS011;19997;51.274;22.506;2023-04-19T01:01:13;10.77;;;6.60;;
33654;SDS011;19997;51.274;22.506;2023-04-19T01:03:41;11.18;;;6.88;;
33654;SDS011;19997;51.274;22.506;2023-04-19T01:06:08;11.93;;;7.93;;
33654;SDS011;19997;51.274;22.506;2023-04-19T01:08:36;12.48;;;7.10;;
33654;SDS011;19997;51.274;22.506;2023-04-19T01:11:03;9.25;;;6.63;;
33654;SDS011;19997;51.274;22.506;2023-04-19T01:13:32;11.70;;;7.40;;
33654;SDS011;19997;51.274;22.506;2023-04-19T01:16:02;16.08;;;8.20;;
33654;SDS011;19997;51.274;22.506;2023-04-19T01:18:31;16.50;;;8.27;;
33654;SDS011;19997;51.274;22.506;2023-04-19T01:21:02;13.80;;;8.45;;
33654;SDS011;19997;51.274;22.506;2023-04-19T01:23:32;13.10;;;8.25;;
33654;SDS011;19997;51.274;22.506;2023-04-19T01:26:02;17.15;;;8.55;;
33654;SDS011;19997;51.274;22.506;2023-04-19T01:28:29;14.63;;;8.77;;
33654;SDS011;19997;51.274;22.506;2023-04-19T01:30:56;12.40;;;8.20;;
33654;SDS011;19997;51.274;22.506;2023-04-19T01:33:24;15.68;;;8.60;;
33654;SDS011;19997;51.274;22.506;2023-04-19T01:35:52;14.52;;;8.27;;
33654;SDS011;19997;51.274;22.506;2023-04-19T01:38:19;17.42;;;8.90;;
33654;SDS011;19997;51.274;22.506;2023-04-19T01:40:47;14.63;;;8.65;;
33654;SDS011;19997;51.274;22.506;2023-04-19T01:43:15;17.45;;;9.30;;
33654;SDS011;19997;51.274;22.506;2023-04-19T01:45:43;13.70;;;8.45;;
33654;SDS011;19997;51.274;22.506;2023-04-19T01:48:10;14.02;;;8.85;;
33654;SDS011;19997;51.274;22.506;2023-04-19T01:50:37;18.20;;;9.57;;
33654;SDS011;19997;51.274;22.506;2023-04-19T01:53:04;13.68;;;9.02;;
33654;SDS011;19997;51.274;22.506;2023-04-19T01:55:31;18.58;;;9.32;;
33654;SDS011;19997;51.274;22.506;2023-04-19T01:58:00;14.88;;;8.80;;
33654;SDS011;19997;51.274;22.506;2023-04-19T02:00:27;15.85;;;9.05;;
33654;SDS011;19997;51.274;22.506;2023-04-19T02:02:54;13.98;;;8.77;;
33654;SDS011;19997;51.274;22.506;2023-04-19T02:05:21;19.75;;;10.52;;
33654;SDS011;19997;51.274;22.506;2023-04-19T02:07:49;15.80;;;9.13;;
33654;SDS011;19997;51.274;22.506;2023-04-19T02:10:16;10.90;;;7.30;;
33654;SDS011;19997;51.274;22.506;2023-04-19T02:12:43;15.05;;;8.35;;
33654;SDS011;19997;51.274;22.506;2023-04-19T02:15:12;17.73;;;9.45;;
33654;SDS011;19997;51.274;22.506;2023-04-19T02:17:39;14.75;;;8.27;;
33654;SDS011;19997;51.274;22.506;2023-04-19T02:20:06;14.48;;;8.93;;
33654;SDS011;19997;51.274;22.506;2023-04-19T02:22:35;13.20;;;9.35;;
33654;SDS011;19997;51.274;22.506;2023-04-19T02:25:02;15.13;;;8.35;;
33654;SDS011;19997;51.274;22.506;2023-04-19T02:27:29;13.57;;;7.90;;
33654;SDS011;19997;51.274;22.506;2023-04-19T02:29:56;12.73;;;7.80;;
33654;SDS011;19997;51.274;22.506;2023-04-19T02:32:25;12.98;;;8.45;;
33654;SDS011;19997;51.274;22.506;2023-04-19T02:34:52;14.40;;;8.10;;
33654;SDS011;19997;51.274;22.506;2023-04-19T02:37:19;13.77;;;8.18;;
33654;SDS011;19997;51.274;22.506;2023-04-19T02:39:47;12.30;;;8.00;;
33654;SDS011;19997;51.274;22.506;2023-04-19T02:42:14;14.07;;;7.70;;
33654;SDS011;19997;51.274;22.506;2023-04-19T02:44:41;13.70;;;7.60;;
33654;SDS011;19997;51.274;22.506;2023-04-19T02:47:08;14.30;;;7.20;;
33654;SDS011;19997;51.274;22.506;2023-04-19T02:49:36;13.10;;;7.43;;
33654;SDS011;19997;51.274;22.506;2023-04-19T02:52:06;13.10;;;7.75;;
33654;SDS011;19997;51.274;22.506;2023-04-19T02:54:36;14.10;;;7.45;;
33654;SDS011;19997;51.274;22.506;2023-04-19T02:57:03;12.40;;;6.97;;
33654;SDS011;19997;51.274;22.506;2023-04-19T02:59:30;18.65;;;7.90;;
33654;SDS011;19997;51.274;22.506;2023-04-19T03:01:59;13.27;;;7.38;;
33654;SDS011;19997;51.274;22.506;2023-04-19T03:04:26;13.32;;;7.47;;
33654;SDS011;19997;51.274;22.506;2023-04-19T03:06:56;12.65;;;8.02;;
33654;SDS011;19997;51.274;22.506;2023-04-19T03:09:24;16.42;;;8.45;;
33654;SDS011;19997;51.274;22.506;2023-04-19T03:11:51;12.38;;;7.50;;
33654;SDS011;19997;51.274;22.506;2023-04-19T03:14:18;10.15;;;6.68;;
33654;SDS011;19997;51.274;22.506;2023-04-19T03:16:46;10.98;;;7.10;;
33654;SDS011;19997;51.274;22.506;2023-04-19T03:19:13;11.15;;;7.03;;
33654;SDS011;19997;51.274;22.506;2023-04-19T03:21:46;13.90;;;7.15;;
33654;SDS011;19997;51.274;22.506;2023-04-19T03:24:17;14.38;;;6.72;;
33654;SDS011;19997;51.274;22.506;2023-04-19T03:26:48;14.32;;;6.78;;
33654;SDS011;19997;51.274;22.506;2023-04-19T03:29:20;12.15;;;6.88;;
33654;SDS011;19997;51.274;22.506;2023-04-19T03:31:56;14.00;;;7.32;;
33654;SDS011;19997;51.274;22.506;2023-04-19T03:34:24;12.60;;;7.25;;
33654;SDS011;19997;51.274;22.506;2023-04-19T03:36:52;13.57;;;6.75;;
33654;SDS011;19997;51.274;22.506;2023-04-19T03:39:21;14.40;;;7.15;;
33654;SDS011;19997;51.274;22.506;2023-04-19T03:41:52;14.98;;;7.25;;
33654;SDS011;19997;51.274;22.506;2023-04-19T03:44:42;10.55;;;7.20;;
33654;SDS011;19997;51.274;22.506;2023-04-19T03:47:10;11.93;;;7.20;;
33654;SDS011;19997;51.274;22.506;2023-04-19T03:49:41;12.52;;;7.20;;
33654;SDS011;19997;51.274;22.506;2023-04-19T03:52:09;12.48;;;7.45;;
33654;SDS011;19997;51.274;22.506;2023-04-19T03:54:37;14.02;;;6.82;;
33654;SDS011;19997;51.274;22.506;2023-04-19T03:57:09;11.48;;;7.10;;
33654;SDS011;19997;51.274;22.506;2023-04-19T03:59:39;11.85;;;7.07;;
33654;SDS011;19997;51.274;22.506;2023-04-19T04:02:07;11.48;;;7.05;;
33654;SDS011;19997;51.274;22.506;2023-04-19T04:04:34;11.27;;;7.65;;
33654;SDS011;19997;51.274;22.506;2023-04-19T04:07:01;13.10;;;7.68;;
33654;SDS011;19997;51.274;22.506;2023-04-19T04:09:28;11.77;;;7.25;;
33654;SDS011;19997;51.274;22.506;2023-04-19T04:11:57;11.32;;;6.72;;
33654;SDS011;19997;51.274;22.506;2023-04-19T04:14:24;9.95;;;6.47;;
33654;SDS011;19997;51.274;22.506;2023-04-19T04:16:51;11.82;;;7.25;;
33654;SDS011;19997;51.274;22.506;2023-04-19T04:19:19;11.75;;;7.03;;
33654;SDS011;19997;51.274;22.506;2023-04-19T04:21:46;12.20;;;7.78;;
33654;SDS011;19997;51.274;22.506;2023-04-19T04:24:17;10.48;;;6.70;;
33654;SDS011;19997;51.274;22.506;2023-04-19T04:27:08;13.17;;;7.63;;
33654;SDS011;19997;51.274;22.506;2023-04-19T04:29:38;13.23;;;6.63;;
33654;SDS011;19997;51.274;22.506;2023-04-19T04:32:07;12.82;;;7.47;;
33654;SDS011;19997;51.274;22.506;2023-04-19T04:34:38;13.63;;;8.43;;
33654;SDS011;19997;51.274;22.506;2023-04-19T04:37:10;14.27;;;7.00;;
33654;SDS011;19997;51.274;22.506;2023-04-19T04:39:39;13.63;;;7.55;;
33654;SDS011;19997;51.274;22.506;2023-04-19T04:42:09;15.00;;;8.02;;
33654;SDS011;19997;51.274;22.506;2023-04-19T04:44:36;12.95;;;7.80;;
33654;SDS011;19997;51.274;22.506;2023-04-19T04:47:05;11.70;;;7.20;;
33654;SDS011;19997;51.274;22.506;2023-04-19T04:49:38;12.43;;;7.75;;
33654;SDS011;19997;51.274;22.506;2023-04-19T04:52:05;10.65;;;6.90;;
33654;SDS011;19997;51.274;22.506;2023-04-19T04:54:40;13.63;;;7.38;;
33654;SDS011;19997;51.274;22.506;2023-04-19T04:57:19;12.77;;;7.32;;
33654;SDS011;19997;51.274;22.506;2023-04-19T04:59:46;10.88;;;7.20;;
33654;SDS011;19997;51.274;22.506;2023-04-19T05:02:16;10.67;;;6.27;;
33654;SDS011;19997;51.274;22.506;2023-04-19T05:04:44;14.38;;;8.02;;
33654;SDS011;19997;51.274;22.506;2023-04-19T05:07:14;14.32;;;7.30;;
33654;SDS011;19997;51.274;22.506;2023-04-19T05:09:45;13.13;;;7.13;;
33654;SDS011;19997;51.274;22.506;2023-04-19T05:12:16;12.55;;;7.47;;
33654;SDS011;19997;51.274;22.506;2023-04-19T05:14:45;12.98;;;7.35;;
33654;SDS011;19997;51.274;22.506;2023-04-19T05:17:12;13.38;;;7.85;;
33654;SDS011;19997;51.274;22.506;2023-04-19T05:19:39;16.08;;;8.10;;
33654;SDS011;19997;51.274;22.506;2023-04-19T05:22:08;13.82;;;7.50;;
33654;SDS011;19997;51.274;22.506;2023-04-19T05:24:36;15.13;;;8.02;;
33654;SDS011;19997;51.274;22.506;2023-04-19T05:27:04;17.48;;;8.15;;
33654;SDS011;19997;51.274;22.506;2023-04-19T05:29:32;14.43;;;7.65;;
33654;SDS011;19997;51.274;22.506;2023-04-19T05:31:59;12.82;;;8.10;;
33654;SDS011;19997;51.274;22.506;2023-04-19T05:34:39;13.93;;;7.97;;
33654;SDS011;19997;51.274;22.506;2023-04-19T05:37:10;17.80;;;8.32;;
33654;SDS011;19997;51.274;22.506;2023-04-19T05:39:37;14.20;;;8.50;;
33654;SDS011;19997;51.274;22.506;2023-04-19T05:42:04;16.60;;;8.10;;
33654;SDS011;19997;51.274;22.506;2023-04-19T05:44:32;17.30;;;8.20;;
33654;SDS011;19997;51.274;22.506;2023-04-19T05:47:00;14.70;;;8.25;;
33654;SDS011;19997;51.274;22.506;2023-04-19T05:49:50;13.07;;;8.15;;
33654;SDS011;19997;51.274;22.506;2023-04-19T05:52:28;17.67;;;8.40;;
33654;SDS011;19997;51.274;22.506;2023-04-19T05:54:57;13.10;;;8.32;;
33654;SDS011;19997;51.274;22.506;2023-04-19T05:57:26;12.75;;;7.90;;
33654;SDS011;19997;51.274;22.506;2023-04-19T05:59:54;12.95;;;6.95;;
33654;SDS011;19997;51.274;22.506;2023-04-19T06:02:25;14.13;;;8.00;;
33654;SDS011;19997;51.274;22.506;2023-04-19T06:04:52;11.98;;;7.47;;
33654;SDS011;19997;51.274;22.506;2023-04-19T06:07:19;12.23;;;7.20;;
33654;SDS011;19997;51.274;22.506;2023-04-19T06:09:46;15.27;;;7.75;;
33654;SDS011;19997;51.274;22.506;2023-04-19T06:12:13;12.18;;;7.55;;
33654;SDS011;19997;51.274;22.506;2023-04-19T06:14:41;13.45;;;7.22;;
33654;SDS011;19997;51.274;22.506;2023-04-19T06:17:09;14.32;;;7.78;;
33654;SDS011;19997;51.274;22.506;2023-04-19T06:19:36;15.38;;;8.02;;
33654;SDS011;19997;51.274;22.506;2023-04-19T06:22:03;14.13;;;8.25;;
33654;SDS011;19997;51.274;22.506;2023-04-19T06:24:30;23.83;;;9.18;;
33654;SDS011;19997;51.274;22.506;2023-04-19T06:26:58;18.02;;;8.82;;
33654;SDS011;19997;51.274;22.506;2023-04-19T06:29:26;12.38;;;7.60;;
33654;SDS011;19997;51.274;22.506;2023-04-19T06:31:53;16.13;;;7.65;;
33654;SDS011;19997;51.274;22.506;2023-04-19T06:34:22;16.90;;;8.23;;
33654;SDS011;19997;51.274;22.506;2023-04-19T06:36:49;12.02;;;7.88;;
33654;SDS011;19997;51.274;22.506;2023-04-19T06:39:16;14.55;;;7.82;;
33654;SDS011;19997;51.274;22.506;2023-04-19T06:41:43;13.35;;;8.30;;
33654;SDS011;19997;51.274;22.506;2023-04-19T06:44:14;10.77;;;6.85;;
33654;SDS011;19997;51.274;22.506;2023-04-19T06:46:42;12.10;;;8.05;;
33654;SDS011;19997;51.274;22.506;2023-04-19T06:49:09;11.20;;;7.50;;
33654;SDS011;19997;51.274;22.506;2023-04-19T06:51:37;12.45;;;7.72;;
33654;SDS011;19997;51.274;22.506;2023-04-19T06:54:05;11.55;;;7.18;;
33654;SDS011;19997;51.274;22.506;2023-04-19T06:56:38;15.45;;;8.45;;
33654;SDS011;19997;51.274;22.506;2023-04-19T06:59:09;12.85;;;7.25;;
33654;SDS011;19997;51.274;22.506;2023-04-19T07:01:37;11.55;;;6.88;;
33654;SDS011;19997;51.274;22.506;2023-04-19T07:04:05;10.63;;;7.13;;
33654;SDS011;19997;51.274;22.506;2023-04-19T07:06:32;12.55;;;7.97;;
33654;SDS011;19997;51.274;22.506;2023-04-19T07:09:01;11.25;;;7.68;;
33654;SDS011;19997;51.274;22.506;2023-04-19T07:11:29;12.98;;;7.30;;
33654;SDS011;19997;51.274;22.506;2023-04-19T07:13:56;10.70;;;7.57;;
33654;SDS011;19997;51.274;22.506;2023-04-19T07:16:25;11.23;;;7.45;;
33654;SDS011;19997;51.274;22.506;2023-04-19T07:18:52;11.68;;;7.65;;
33654;SDS011;19997;51.274;22.506;2023-04-19T07:21:19;13.52;;;8.35;;
33654;SDS011;19997;51.274;22.506;2023-04-19T07:23:48;13.02;;;8.65;;
33654;SDS011;19997;51.274;22.506;2023-04-19T07:26:17;14.50;;;8.88;;
33654;SDS011;19997;51.274;22.506;2023-04-19T07:28:44;12.90;;;7.85;;
33654;SDS011;19997;51.274;22.506;2023-04-19T07:31:15;13.48;;;7.47;;
33654;SDS011;19997;51.274;22.506;2023-04-19T07:33:42;12.95;;;7.30;;
33654;SDS011;19997;51.274;22.506;2023-04-19T07:36:11;13.77;;;8.65;;
33654;SDS011;19997;51.274;22.506;2023-04-19T07:38:38;11.85;;;8.10;;
33654;SDS011;19997;51.274;22.506;2023-04-19T07:41:05;10.50;;;7.93;;
33654;SDS011;19997;51.274;22.506;2023-04-19T07:43:34;11.15;;;8.27;;
33654;SDS011;19997;51.274;22.506;2023-04-19T07:46:07;11.68;;;8.05;;
33654;SDS011;19997;51.274;22.506;2023-04-19T07:48:35;11.48;;;7.97;;
33654;SDS011;19997;51.274;22.506;2023-04-19T07:51:09;15.00;;;9.25;;
33654;SDS011;19997;51.274;22.506;2023-04-19T07:53:37;17.55;;;9.13;;
33654;SDS011;19997;51.274;22.506;2023-04-19T07:56:06;19.85;;;8.68;;
33654;SDS011;19997;51.274;22.506;2023-04-19T07:58:35;17.63;;;9.10;;
33654;SDS011;19997;51.274;22.506;2023-04-19T08:01:03;15.70;;;9.45;;
33654;SDS011;19997;51.274;22.506;2023-04-19T08:03:32;14.02;;;7.25;;
33654;SDS011;19997;51.274;22.506;2023-04-19T08:05:59;9.90;;;7.57;;
33654;SDS011;19997;51.274;22.506;2023-04-19T08:08:27;14.50;;;7.55;;
33654;SDS011;19997;51.274;22.506;2023-04-19T08:10:54;11.73;;;7.20;;
33654;SDS011;19997;51.274;22.506;2023-04-19T08:13:21;11.43;;;7.47;;
33654;SDS011;19997;51.274;22.506;2023-04-19T08:15:49;11.80;;;7.25;;
33654;SDS011;19997;51.274;22.506;2023-04-19T08:18:16;11.60;;;7.68;;
33654;SDS011;19997;51.274;22.506;2023-04-19T08:20:44;12.05;;;7.45;;
33654;SDS011;19997;51.274;22.506;2023-04-19T08:23:11;14.35;;;8.77;;
33654;SDS011;19997;51.274;22.506;2023-04-19T08:25:39;12.23;;;7.07;;
33654;SDS011;19997;51.274;22.506;2023-04-19T08:28:06;15.82;;;8.15;;
33654;SDS011;19997;51.274;22.506;2023-04-19T08:30:33;10.70;;;7.43;;
33654;SDS011;19997;51.274;22.506;2023-04-19T08:33:02;10.13;;;7.28;;
33654;SDS011;19997;51.274;22.506;2023-04-19T08:35:29;12.80;;;8.07;;
33654;SDS011;19997;51.274;22.506;2023-04-19T08:37:56;12.45;;;8.05;;
33654;SDS011;19997;51.274;22.506;2023-04-19T08:40:23;12.80;;;8.05;;
33654;SDS011;19997;51.274;22.506;2023-04-19T08:42:50;13.13;;;8.70;;
33654;SDS011;19997;51.274;22.506;2023-04-19T08:45:18;11.57;;;8.18;;
33654;SDS011;19997;51.274;22.506;2023-04-19T08:47:46;14.02;;;9.32;;
33654;SDS011;19997;51.274;22.506;2023-04-19T08:50:15;15.32;;;8.93;;
33654;SDS011;19997;51.274;22.506;2023-04-19T08:52:46;13.48;;;8.68;;
33654;SDS011;19997;51.274;22.506;2023-04-19T08:55:14;11.45;;;8.50;;
33654;SDS011;19997;51.274;22.506;2023-04-19T08:57:42;12.18;;;8.57;;
33654;SDS011;19997;51.274;22.506;2023-04-19T09:00:09;11.88;;;8.77;;
33654;SDS011;19997;51.274;22.506;2023-04-19T09:02:44;14.50;;;8.77;;
33654;SDS011;19997;51.274;22.506;2023-04-19T09:05:13;11.88;;;7.30;;
33654;SDS011;19997;51.274;22.506;2023-04-19T09:07:42;15.05;;;8.68;;
33654;SDS011;19997;51.274;22.506;2023-04-19T09:10:10;16.60;;;8.73;;
33654;SDS011;19997;51.274;22.506;2023-04-19T09:12:38;12.93;;;7.78;;
33654;SDS011;19997;51.274;22.506;2023-04-19T09:15:08;15.93;;;8.90;;
33654;SDS011;19997;51.274;22.506;2023-04-19T09:17:36;13.45;;;8.52;;
33654;SDS011;19997;51.274;22.506;2023-04-19T09:20:04;14.52;;;9.07;;
33654;SDS011;19997;51.274;22.506;2023-04-19T09:22:32;22.02;;;9.35;;
33654;SDS011;19997;51.274;22.506;2023-04-19T09:25:01;18.60;;;9.27;;
33654;SDS011;19997;51.274;22.506;2023-04-19T09:27:29;15.48;;;9.27;;
33654;SDS011;19997;51.274;22.506;2023-04-19T09:29:58;16.25;;;9.93;;
33654;SDS011;19997;51.274;22.506;2023-04-19T09:32:27;14.88;;;9.20;;
33654;SDS011;19997;51.274;22.506;2023-04-19T09:34:55;17.23;;;10.65;;
33654;SDS011;19997;51.274;22.506;2023-04-19T09:37:24;16.25;;;9.25;;
33654;SDS011;19997;51.274;22.506;2023-04-19T09:39:52;21.38;;;10.02;;
33654;SDS011;19997;51.274;22.506;2023-04-19T09:42:21;14.10;;;9.10;;
33654;SDS011;19997;51.274;22.506;2023-04-19T09:44:54;15.60;;;8.90;;
33654;SDS011;19997;51.274;22.506;2023-04-19T09:47:22;14.13;;;8.20;;
33654;SDS011;19997;51.274;22.506;2023-04-19T09:50:03;13.20;;;8.98;;
33654;SDS011;19997;51.274;22.506;2023-04-19T09:52:31;11.93;;;9.57;;
33654;SDS011;19997;51.274;22.506;2023-04-19T09:54:59;15.45;;;9.43;;
33654;SDS011;19997;51.274;22.506;2023-04-19T09:57:29;20.77;;;9.30;;
33654;SDS011;19997;51.274;22.506;2023-04-19T09:59:58;13.93;;;9.35;;
33654;SDS011;19997;51.274;22.506;2023-04-19T10:02:29;16.17;;;8.48;;
33654;SDS011;19997;51.274;22.506;2023-04-19T10:04:57;10.85;;;8.70;;
33654;SDS011;19997;51.274;22.506;2023-04-19T10:07:25;14.35;;;9.07;;
33654;SDS011;19997;51.274;22.506;2023-04-19T10:09:53;12.13;;;8.75;;
33654;SDS011;19997;51.274;22.506;2023-04-19T10:12:23;13.30;;;8.20;;
33654;SDS011;19997;51.274;22.506;2023-04-19T10:14:54;15.68;;;8.65;;
33654;SDS011;19997;51.274;22.506;2023-04-19T10:17:22;12.98;;;9.00;;
33654;SDS011;19997;51.274;22.506;2023-04-19T10:19:51;13.95;;;8.85;;
33654;SDS011;19997;51.274;22.506;2023-04-19T10:22:23;14.10;;;9.63;;
33654;SDS011;19997;51.274;22.506;2023-04-19T10:25:09;13.90;;;8.60;;
33654;SDS011;19997;51.274;22.506;2023-04-19T10:27:38;16.15;;;9.02;;
33654;SDS011;19997;51.274;22.506;2023-04-19T10:30:09;12.05;;;7.97;;
33654;SDS011;19997;51.274;22.506;2023-04-19T10:32:43;14.95;;;8.98;;
33654;SDS011;19997;51.274;22.506;2023-04-19T10:35:18;12.48;;;8.75;;
33654;SDS011;19997;51.274;22.506;2023-04-19T10:38:02;15.27;;;8.57;;
33654;SDS011;19997;51.274;22.506;2023-04-19T10:43:25;17.10;;;8.82;;
33654;SDS011;19997;51.274;22.506;2023-04-19T10:45:55;14.52;;;8.98;;
33654;SDS011;19997;51.274;22.506;2023-04-19T10:48:33;13.10;;;8.52;;
33654;SDS011;19997;51.274;22.506;2023-04-19T10:51:03;12.60;;;8.43;;
33654;SDS011;19997;51.274;22.506;2023-04-19T10:53:44;11.70;;;7.40;;
33654;SDS011;19997;51.274;22.506;2023-04-19T10:56:13;9.35;;;7.50;;
33654;SDS011;19997;51.274;22.506;2023-04-19T11:01:47;13.98;;;8.52;;
33654;SDS011;19997;51.274;22.506;2023-04-19T11:04:16;15.15;;;6.95;;
33654;SDS011;19997;51.274;22.506;2023-04-19T11:06:57;12.10;;;6.93;;
33654;SDS011;19997;51.274;22.506;2023-04-19T11:09:27;8.85;;;6.85;;
33654;SDS011;19997;51.274;22.506;2023-04-19T11:11:57;11.88;;;7.18;;
33654;SDS011;19997;51.274;22.506;2023-04-19T11:14:27;15.73;;;7.57;;
33654;SDS011;19997;51.274;22.506;2023-04-19T11:16:58;19.35;;;6.40;;
33654;SDS011;19997;51.274;22.506;2023-04-19T11:19:26;9.43;;;6.28;;
33654;SDS011;19997;51.274;22.506;2023-04-19T11:21:53;9.77;;;5.38;;
33654;SDS011;19997;51.274;22.506;2023-04-19T11:24:25;11.23;;;6.78;;
33654;SDS011;19997;51.274;22.506;2023-04-19T11:26:52;9.18;;;6.00;;
33654;SDS011;19997;51.274;22.506;2023-04-19T11:29:21;13.70;;;5.18;;
33654;SDS011;19997;51.274;22.506;2023-04-19T11:31:48;11.35;;;4.88;;
33654;SDS011;19997;51.274;22.506;2023-04-19T11:34:17;9.07;;;3.25;;
33654;SDS011;19997;51.274;22.506;2023-04-19T11:36:49;7.47;;;4.50;;
33654;SDS011;19997;51.274;22.506;2023-04-19T11:39:16;8.07;;;3.30;;
33654;SDS011;19997;51.274;22.506;2023-04-19T11:41:43;5.40;;;2.60;;
33654;SDS011;19997;51.274;22.506;2023-04-19T11:44:11;19.15;;;5.82;;
33654;SDS011;19997;51.274;22.506;2023-04-19T11:46:39;8.75;;;2.97;;
33654;SDS011;19997;51.274;22.506;2023-04-19T11:49:07;9.20;;;2.35;;
33654;SDS011;19997;51.274;22.506;2023-04-19T11:51:39;7.07;;;2.53;;
33654;SDS011;19997;51.274;22.506;2023-04-19T11:54:11;7.57;;;2.30;;
33654;SDS011;19997;51.274;22.506;2023-04-19T11:56:59;5.68;;;2.05;;
33654;SDS011;19997;51.274;22.506;2023-04-19T11:59:29;5.50;;;2.00;;
33654;SDS011;19997;51.274;22.506;2023-04-19T12:02:03;2.72;;;1.63;;
33654;SDS011;19997;51.274;22.506;2023-04-19T12:04:31;9.75;;;1.88;;
33654;SDS011;19997;51.274;22.506;2023-04-19T12:07:01;6.13;;;1.48;;
33654;SDS011;19997;51.274;22.506;2023-04-19T12:09:31;3.55;;;1.45;;
33654;SDS011;19997;51.274;22.506;2023-04-19T12:11:59;10.98;;;1.80;;
33654;SDS011;19997;51.274;22.506;2023-04-19T12:14:26;7.38;;;2.17;;
33654;SDS011;19997;51.274;22.506;2023-04-19T12:17:04;3.15;;;1.63;;
33654;SDS011;19997;51.274;22.506;2023-04-19T12:19:36;4.05;;;1.55;;
33654;SDS011;19997;51.274;22.506;2023-04-19T12:22:10;9.93;;;2.33;;
33654;SDS011;19997;51.274;22.506;2023-04-19T12:24:38;3.63;;;1.42;;
33654;SDS011;19997;51.274;22.506;2023-04-19T12:27:06;3.78;;;1.65;;
33654;SDS011;19997;51.274;22.506;2023-04-19T12:29:34;2.58;;;1.60;;
33654;SDS011;19997;51.274;22.506;2023-04-19T12:32:01;5.80;;;1.35;;
33654;SDS011;19997;51.274;22.506;2023-04-19T12:34:29;4.28;;;1.15;;
33654;SDS011;19997;51.274;22.506;2023-04-19T12:36:56;3.88;;;1.83;;
33654;SDS011;19997;51.274;22.506;2023-04-19T12:39:24;9.23;;;1.40;;
33654;SDS011;19997;51.274;22.506;2023-04-19T12:41:52;3.72;;;1.50;;
33654;SDS011;19997;51.274;22.506;2023-04-19T12:44:20;3.30;;;1.67;;
33654;SDS011;19997;51.274;22.506;2023-04-19T12:46:47;6.20;;;2.60;;
33654;SDS011;19997;51.274;22.506;2023-04-19T12:49:16;6.40;;;1.63;;
33654;SDS011;19997;51.274;22.506;2023-04-19T12:51:44;3.00;;;1.42;;
33654;SDS011;19997;51.274;22.506;2023-04-19T12:54:12;2.20;;;2.00;;
33654;SDS011;19997;51.274;22.506;2023-04-19T12:56:40;8.75;;;2.75;;
33654;SDS011;19997;51.274;22.506;2023-04-19T12:59:07;6.95;;;1.50;;
33654;SDS011;19997;51.274;22.506;2023-04-19T13:01:35;6.40;;;1.38;;
33654;SDS011;19997;51.274;22.506;2023-04-19T13:04:02;5.38;;;1.77;;
33654;SDS011;19997;51.274;22.506;2023-04-19T13:06:30;11.20;;;1.92;;
33654;SDS011;19997;51.274;22.506;2023-04-19T13:08:57;3.25;;;1.35;;
33654;SDS011;19997;51.274;22.506;2023-04-19T13:11:24;1.63;;;1.00;;
33654;SDS011;19997;51.274;22.506;2023-04-19T13:13:52;2.50;;;1.20;;
33654;SDS011;19997;51.274;22.506;2023-04-19T13:16:20;4.97;;;1.33;;
33654;SDS011;19997;51.274;22.506;2023-04-19T13:18:47;1.45;;;1.17;;
33654;SDS011;19997;51.274;22.506;2023-04-19T13:21:15;5.28;;;1.88;;
33654;SDS011;19997;51.274;22.506;2023-04-19T13:23:42;3.60;;;1.27;;
33654;SDS011;19997;51.274;22.506;2023-04-19T13:26:10;2.30;;;1.33;;
33654;SDS011;19997;51.274;22.506;2023-04-19T13:28:37;1.58;;;1.10;;
33654;SDS011;19997;51.274;22.506;2023-04-19T13:31:07;5.18;;;1.45;;
33654;SDS011;19997;51.274;22.506;2023-04-19T13:33:34;2.35;;;1.42;;
33654;SDS011;19997;51.274;22.506;2023-04-19T13:36:01;2.95;;;1.20;;
33654;SDS011;19997;51.274;22.506;2023-04-19T13:38:28;3.83;;;1.40;;
33654;SDS011;19997;51.274;22.506;2023-04-19T13:40:55;16.88;;;2.42;;
33654;SDS011;19997;51.274;22.506;2023-04-19T13:43:22;5.97;;;1.90;;
33654;SDS011;19997;51.274;22.506;2023-04-19T13:45:49;12.95;;;1.60;;
33654;SDS011;19997;51.274;22.506;2023-04-19T13:48:18;6.97;;;1.70;;
33654;SDS011;19997;51.274;22.506;2023-04-19T13:50:45;5.88;;;1.92;;
33654;SDS011;19997;51.274;22.506;2023-04-19T13:53:12;4.75;;;1.48;;
33654;SDS011;19997;51.274;22.506;2023-04-19T13:55:39;5.20;;;1.85;;
33654;SDS011;19997;51.274;22.506;2023-04-19T13:58:06;3.83;;;1.35;;
33654;SDS011;19997;51.274;22.506;2023-04-19T14:00:33;4.65;;;1.88;;
33654;SDS011;19997;51.274;22.506;2023-04-19T14:03:00;6.18;;;1.83;;
33654;SDS011;19997;51.274;22.506;2023-04-19T14:05:29;5.68;;;1.75;;
33654;SDS011;19997;51.274;22.506;2023-04-19T14:07:57;4.28;;;1.60;;
33654;SDS011;19997;51.274;22.506;2023-04-19T14:10:24;6.40;;;1.95;;
33654;SDS011;19997;51.274;22.506;2023-04-19T14:12:51;5.07;;;1.83;;
33654;SDS011;19997;51.274;22.506;2023-04-19T14:15:18;6.68;;;2.00;;
33654;SDS011;19997;51.274;22.506;2023-04-19T14:17:47;3.15;;;1.80;;
33654;SDS011;19997;51.274;22.506;2023-04-19T14:20:14;6.32;;;1.60;;
33654;SDS011;19997;51.274;22.506;2023-04-19T14:22:44;6.45;;;2.42;;
33654;SDS011;19997;51.274;22.506;2023-04-19T14:25:11;5.78;;;1.65;;
33654;SDS011;19997;51.274;22.506;2023-04-19T14:27:39;3.65;;;1.83;;
33654;SDS011;19997;51.274;22.506;2023-04-19T14:30:07;7.85;;;1.77;;
33654;SDS011;19997;51.274;22.506;2023-04-19T14:32:35;5.47;;;1.85;;
33654;SDS011;19997;51.274;22.506;2023-04-19T14:35:02;6.57;;;2.10;;
33654;SDS011;19997;51.274;22.506;2023-04-19T14:37:30;7.28;;;2.15;;
33654;SDS011;19997;51.274;22.506;2023-04-19T14:39:58;6.85;;;1.48;;
33654;SDS011;19997;51.274;22.506;2023-04-19T14:42:26;3.78;;;1.95;;